Terminal Aerodrome Forecast
Issued by NWS

Home | Current Version | Previous Version | Text Only | Print | Product List | Glossary On
Versions: 1 2 3 4 5 6 7 8 9 10 11 12 13 14 15 16
000
FTUS46 KMTR 012300
TAFSNS
TAF
KSNS 012340Z 0200/0224 29011KT P6SM SKC
     FM020200 30007KT P6SM OVC006
     FM020600 VRB03KT 6SM BR OVC004
     FM021700 29006KT P6SM SKC
     FM022100 29013KT P6SM SKC=

USA.gov is the U.S. government's official web portal to all federal, state and local government web resources and services.